Time;durP1;ratioP1;P1;durP2;ratioP2;P2;SDS_P1;SDS_P2;PMS_P1;PMS_P2;Temp;Humidity;BMP_temperature;BMP_pressure;BME280_temperature;BME280_humidity;BME280_pressure;Samples;Min_cycle;Max_cycle;Signal;HPM_P1;HPM_P2
2023/05/03 00:00:20;;;;;;;4.07;1.50;;;8.70;99.90;;;;;;5091321;28;20927;-72
2023/05/03 00:02:45;;;;;;;5.37;1.57;;;8.70;99.90;;;;;;5089829;28;20421;-73
2023/05/03 00:05:11;;;;;;;6.57;1.63;;;8.70;99.90;;;;;;5089595;28;20429;-72
2023/05/03 00:07:39;;;;;;;4.80;1.70;;;8.70;99.90;;;;;;5090176;28;20414;-72
2023/05/03 00:10:05;;;;;;;6.10;1.70;;;8.80;99.90;;;;;;5090642;28;20448;-72
2023/05/03 00:12:31;;;;;;;4.85;1.60;;;8.70;99.90;;;;;;5094293;28;20433;-73
2023/05/03 00:14:57;;;;;;;6.37;1.40;;;8.70;99.90;;;;;;5095051;28;21179;-72
2023/05/03 00:17:22;;;;;;;3.20;1.30;;;8.70;99.90;;;;;;5090231;28;20485;-72
2023/05/03 00:19:48;;;;;;;5.22;1.40;;;8.80;99.90;;;;;;5094117;28;20432;-73
2023/05/03 00:22:14;;;;;;;4.20;1.50;;;8.70;99.90;;;;;;5092591;28;20398;-73
2023/05/03 00:24:39;;;;;;;3.42;1.20;;;8.80;99.90;;;;;;5093515;28;20409;-73
2023/05/03 00:27:05;;;;;;;3.93;1.20;;;8.80;99.90;;;;;;5091922;28;20402;-73
2023/05/03 00:29:31;;;;;;;4.93;1.30;;;8.80;99.90;;;;;;5094025;28;20419;-72
2023/05/03 00:31:58;;;;;;;4.63;1.40;;;8.80;99.90;;;;;;5090321;28;21143;-72
2023/05/03 00:34:24;;;;;;;5.20;1.40;;;8.80;99.90;;;;;;5091886;28;20464;-73
2023/05/03 00:36:50;;;;;;;5.87;1.20;;;8.80;99.90;;;;;;5090115;28;20491;-72
2023/05/03 00:39:15;;;;;;;4.82;1.33;;;8.80;99.90;;;;;;5089500;28;20431;-72
2023/05/03 00:41:41;;;;;;;3.97;1.20;;;8.70;99.90;;;;;;5090806;28;20406;-73
2023/05/03 00:44:07;;;;;;;3.90;1.50;;;8.70;99.90;;;;;;5093386;28;20515;-72
2023/05/03 00:46:32;;;;;;;4.75;1.30;;;8.70;99.90;;;;;;5091724;28;20413;-72
2023/05/03 00:48:58;;;;;;;4.72;1.20;;;8.60;99.90;;;;;;5091861;28;20404;-72
2023/05/03 00:51:26;;;;;;;5.50;1.30;;;8.60;99.90;;;;;;5084372;28;20412;-72
2023/05/03 00:53:52;;;;;;;3.75;1.08;;;8.60;99.90;;;;;;5086252;28;20441;-72
2023/05/03 00:56:22;;;;;;;4.82;1.35;;;8.60;99.90;;;;;;5092359;28;20404;-72
2023/05/03 00:58:50;;;;;;;5.07;1.58;;;8.70;99.90;;;;;;5091741;28;20887;-73
2023/05/03 01:01:16;;;;;;;3.83;1.30;;;8.70;99.90;;;;;;5092183;28;20962;-72
2023/05/03 01:03:45;;;;;;;7.03;1.70;;;8.70;99.90;;;;;;5095580;28;20841;-72
2023/05/03 01:06:36;;;;;;;5.15;1.25;;;8.70;99.90;;;;;;5083702;28;20431;-72
2023/05/03 01:09:11;;;;;;;3.38;1.58;;;8.70;99.90;;;;;;5050592;28;20493;-73
2023/05/03 01:11:52;;;;;;;4.67;1.50;;;8.70;99.90;;;;;;5089541;28;20485;-73
2023/05/03 01:14:42;;;;;;;3.53;1.25;;;8.70;99.90;;;;;;5085629;28;20410;-73
2023/05/03 01:17:14;;;;;;;4.88;1.45;;;8.70;99.90;;;;;;5087847;28;20410;-73
2023/05/03 01:19:55;;;;;;;5.47;1.60;;;8.70;99.90;;;;;;5073859;28;20418;-72
2023/05/03 01:22:45;;;;;;;4.70;1.45;;;8.70;99.90;;;;;;5095380;28;20414;-72
2023/05/03 01:25:13;;;;;;;3.90;1.20;;;8.70;99.90;;;;;;5094220;28;21065;-72
2023/05/03 01:27:40;;;;;;;7.20;1.40;;;8.70;99.90;;;;;;5088843;28;20926;-73
2023/05/03 01:30:07;;;;;;;7.03;1.50;;;8.70;99.90;;;;;;5090363;28;20915;-72
2023/05/03 01:33:11;;;;;;;4.70;1.48;;;8.70;99.90;;;;;;5090800;28;20488;-72
2023/05/03 01:35:43;;;;;;;4.78;1.30;;;8.70;99.90;;;;;;5088257;28;20436;-72
2023/05/03 01:38:10;;;;;;;3.47;1.40;;;8.60;99.90;;;;;;5089524;28;20776;-72
2023/05/03 01:40:42;;;;;;;3.50;1.38;;;8.60;99.90;;;;;;5070816;28;20449;-73
2023/05/03 01:43:11;;;;;;;3.70;1.38;;;8.60;99.90;;;;;;5089413;28;20491;-72
2023/05/03 01:45:36;;;;;;;3.30;1.20;;;8.60;99.90;;;;;;5089829;28;20830;-71
2023/05/03 01:48:07;;;;;;;4.40;1.30;;;8.60;99.90;;;;;;5088356;28;20413;-71
2023/05/03 01:50:33;;;;;;;3.08;1.30;;;8.60;99.90;;;;;;5089243;28;20400;-71
2023/05/03 01:52:59;;;;;;;4.63;1.70;;;8.60;99.90;;;;;;5087817;28;20402;-71
2023/05/03 01:55:24;;;;;;;3.10;1.50;;;8.60;99.90;;;;;;5089162;28;20398;-71
2023/05/03 01:57:50;;;;;;;4.13;1.35;;;8.60;99.90;;;;;;5087951;28;20413;-71
2023/05/03 02:00:16;;;;;;;4.93;1.20;;;8.60;99.90;;;;;;5089147;28;20405;-71
2023/05/03 02:02:41;;;;;;;3.60;1.50;;;8.60;99.90;;;;;;5069811;28;20422;-71
2023/05/03 02:05:08;;;;;;;4.90;1.50;;;8.60;99.90;;;;;;5087541;28;20413;-71
2023/05/03 02:07:33;;;;;;;4.05;1.42;;;8.70;99.90;;;;;;5087511;28;20493;-71
2023/05/03 02:09:59;;;;;;;3.53;1.20;;;8.70;99.90;;;;;;5090399;28;20487;-71
2023/05/03 02:12:25;;;;;;;3.58;1.25;;;8.60;99.90;;;;;;5090449;28;20438;-71
2023/05/03 02:14:50;;;;;;;4.97;1.43;;;8.60;99.90;;;;;;5096137;28;20807;-71
2023/05/03 02:17:17;;;;;;;2.67;1.40;;;8.60;99.90;;;;;;5092433;28;20394;-71
2023/05/03 02:19:43;;;;;;;3.22;1.23;;;8.60;99.90;;;;;;5092164;28;20405;-71
2023/05/03 02:22:09;;;;;;;4.43;1.38;;;8.60;99.90;;;;;;5083037;28;20420;-71
2023/05/03 02:24:35;;;;;;;3.47;1.20;;;8.60;99.90;;;;;;5095286;28;20436;-71
2023/05/03 02:27:03;;;;;;;3.25;1.17;;;8.70;99.90;;;;;;5090903;28;20409;-71
2023/05/03 02:29:30;;;;;;;4.47;1.30;;;8.60;99.90;;;;;;5086899;28;20832;-71
2023/05/03 02:31:56;;;;;;;2.85;1.00;;;8.60;99.90;;;;;;5088177;28;20489;-71
2023/05/03 02:34:22;;;;;;;4.18;1.00;;;8.60;99.90;;;;;;5091726;28;20414;-71
2023/05/03 02:36:48;;;;;;;3.40;1.17;;;8.60;99.90;;;;;;5091300;28;20835;-71
2023/05/03 02:39:13;;;;;;;3.20;1.10;;;8.60;99.90;;;;;;5095785;28;20490;-71
2023/05/03 02:41:39;;;;;;;5.10;1.13;;;8.60;99.90;;;;;;5086625;28;20398;-71
2023/05/03 02:44:05;;;;;;;3.05;0.77;;;8.60;99.90;;;;;;5091398;28;20430;-71
2023/05/03 02:46:30;;;;;;;3.40;0.97;;;8.60;99.90;;;;;;5091847;28;20402;-71
2023/05/03 02:48:56;;;;;;;3.28;0.60;;;8.50;99.90;;;;;;5095671;28;20437;-71
2023/05/03 02:51:21;;;;;;;2.40;0.57;;;8.60;99.90;;;;;;5087324;28;21501;-71
2023/05/03 02:53:47;;;;;;;2.33;0.43;;;8.50;99.90;;;;;;5086644;28;20946;-71
2023/05/03 02:56:13;;;;;;;2.93;0.57;;;8.60;99.90;;;;;;5087549;28;20507;-71
2023/05/03 02:58:38;;;;;;;2.63;0.52;;;8.60;99.90;;;;;;5087813;28;20405;-71
2023/05/03 03:01:04;;;;;;;2.43;0.70;;;8.60;99.90;;;;;;5087672;28;20919;-71
2023/05/03 03:03:30;;;;;;;2.60;0.45;;;8.60;99.90;;;;;;5093199;28;20428;-71
2023/05/03 03:05:55;;;;;;;2.50;0.70;;;8.60;99.90;;;;;;5091069;28;20398;-71
2023/05/03 03:08:22;;;;;;;3.57;0.70;;;8.60;99.90;;;;;;5093005;28;20392;-71
2023/05/03 03:10:48;;;;;;;2.58;0.60;;;8.60;99.90;;;;;;5090684;28;20394;-72
2023/05/03 03:13:14;;;;;;;2.10;0.50;;;8.60;99.90;;;;;;5074597;28;20450;-71
2023/05/03 03:15:40;;;;;;;4.53;0.60;;;8.60;99.90;;;;;;5087969;28;20410;-71
2023/05/03 03:18:05;;;;;;;3.63;0.60;;;8.60;99.90;;;;;;5089463;28;20410;-71
2023/05/03 03:20:31;;;;;;;2.13;0.60;;;8.60;99.90;;;;;;5090142;28;20434;-71
2023/05/03 03:22:56;;;;;;;3.50;0.70;;;8.60;99.90;;;;;;5093149;28;20528;-71
2023/05/03 03:25:22;;;;;;;2.67;0.57;;;8.60;99.90;;;;;;5094385;28;20398;-71
2023/05/03 03:27:48;;;;;;;4.50;0.70;;;8.60;99.90;;;;;;5092623;28;20510;-71
2023/05/03 03:30:14;;;;;;;2.58;0.50;;;8.50;99.90;;;;;;5089955;28;20481;-71
2023/05/03 03:32:39;;;;;;;1.80;0.50;;;8.50;99.90;;;;;;5094027;28;20398;-71
2023/05/03 03:35:07;;;;;;;3.33;0.70;;;8.50;99.90;;;;;;5094723;28;20801;-71
2023/05/03 03:37:32;;;;;;;2.53;0.70;;;8.50;99.90;;;;;;5093632;28;20935;-72
2023/05/03 03:39:58;;;;;;;2.28;0.40;;;8.50;99.90;;;;;;5089894;28;20505;-73
2023/05/03 03:42:24;;;;;;;4.17;0.70;;;8.50;99.90;;;;;;5097180;28;20444;-73
2023/05/03 03:44:50;;;;;;;2.40;0.40;;;8.50;99.90;;;;;;5090038;28;20405;-73
2023/05/03 03:47:16;;;;;;;3.57;0.60;;;8.50;99.90;;;;;;5096810;28;20433;-71
2023/05/03 03:49:41;;;;;;;2.58;0.60;;;8.50;99.90;;;;;;5094680;28;20753;-73
2023/05/03 03:52:07;;;;;;;3.03;0.70;;;8.50;99.90;;;;;;5097423;28;20412;-73
2023/05/03 03:54:36;;;;;;;2.78;0.68;;;8.50;99.90;;;;;;5092071;28;20426;-73
2023/05/03 03:57:01;;;;;;;3.50;1.00;;;8.50;99.90;;;;;;5095406;28;20758;-73
2023/05/03 03:59:28;;;;;;;2.17;0.77;;;8.50;99.90;;;;;;5085624;28;20395;-73
2023/05/03 04:01:54;;;;;;;3.25;1.00;;;8.50;99.90;;;;;;5089100;28;20415;-73
2023/05/03 04:04:20;;;;;;;3.42;0.75;;;8.50;99.90;;;;;;5089484;28;20796;-73
2023/05/03 04:06:45;;;;;;;4.17;0.90;;;8.50;99.90;;;;;;5089599;28;20394;-73
2023/05/03 04:09:11;;;;;;;2.80;0.80;;;8.60;99.90;;;;;;5088519;28;20397;-73
2023/05/03 04:11:37;;;;;;;3.57;0.90;;;8.60;99.90;;;;;;5072093;28;20809;-73
2023/05/03 04:14:03;;;;;;;2.50;0.60;;;8.60;99.90;;;;;;5090562;28;20402;-73
2023/05/03 04:16:28;;;;;;;2.50;0.50;;;8.60;99.90;;;;;;5089094;28;20604;-73
2023/05/03 04:18:54;;;;;;;3.80;0.83;;;8.60;99.90;;;;;;5090121;28;20402;-73
2023/05/03 04:21:20;;;;;;;2.40;0.70;;;8.60;99.90;;;;;;5089193;28;20573;-73
2023/05/03 04:23:46;;;;;;;3.03;0.82;;;8.60;99.90;;;;;;5087835;28;20550;-73
2023/05/03 04:26:11;;;;;;;2.92;0.60;;;8.60;99.90;;;;;;5071072;28;20430;-73
2023/05/03 04:28:38;;;;;;;3.70;0.70;;;8.60;99.90;;;;;;5087303;28;20467;-73
2023/05/03 04:31:04;;;;;;;2.83;0.50;;;8.60;99.90;;;;;;5089475;28;20426;-73
2023/05/03 04:33:30;;;;;;;2.72;0.82;;;8.60;99.90;;;;;;5088857;28;20426;-73
2023/05/03 04:35:56;;;;;;;3.22;0.73;;;8.60;99.90;;;;;;5071251;28;20467;-73
2023/05/03 04:38:22;;;;;;;2.70;0.50;;;8.60;99.90;;;;;;5089028;28;20390;-73
2023/05/03 04:40:48;;;;;;;2.60;0.80;;;8.70;99.90;;;;;;5089702;28;20481;-73
2023/05/03 04:43:14;;;;;;;2.78;0.80;;;8.70;99.90;;;;;;5087821;28;20524;-73
2023/05/03 04:45:40;;;;;;;2.72;0.60;;;8.70;99.90;;;;;;5095539;28;20487;-73
2023/05/03 04:48:06;;;;;;;3.15;0.57;;;8.70;99.90;;;;;;5089670;28;20394;-73
2023/05/03 04:50:35;;;;;;;3.38;0.68;;;8.70;99.90;;;;;;5096901;28;20392;-73
2023/05/03 04:53:01;;;;;;;4.57;0.90;;;8.70;99.90;;;;;;5092773;28;20970;-73
2023/05/03 04:55:27;;;;;;;3.47;1.10;;;8.70;99.90;;;;;;5098800;28;20496;-73
2023/05/03 04:57:53;;;;;;;4.32;1.30;;;8.70;99.90;;;;;;5094719;28;20545;-73
2023/05/03 05:00:20;;;;;;;2.88;0.80;;;8.70;99.90;;;;;;5094422;28;20402;-73
2023/05/03 05:02:45;;;;;;;4.50;0.70;;;8.70;99.90;;;;;;5088220;28;20795;-73
2023/05/03 05:05:11;;;;;;;3.87;0.90;;;8.80;99.90;;;;;;5089352;28;20398;-74
2023/05/03 05:07:37;;;;;;;3.88;0.90;;;8.70;99.90;;;;;;5088223;28;20812;-71
2023/05/03 05:10:02;;;;;;;4.20;0.70;;;8.80;99.90;;;;;;5089787;28;20398;-71
2023/05/03 05:12:28;;;;;;;3.33;0.87;;;8.80;99.90;;;;;;5087838;28;20467;-71
2023/05/03 05:14:54;;;;;;;2.80;0.90;;;8.80;99.90;;;;;;5088703;28;20521;-71
2023/05/03 05:17:20;;;;;;;4.93;1.10;;;8.80;99.90;;;;;;5090117;28;20405;-71
2023/05/03 05:19:46;;;;;;;3.53;1.33;;;8.80;99.90;;;;;;5087566;28;20402;-71
2023/05/03 05:22:11;;;;;;;3.07;1.53;;;8.80;99.90;;;;;;5089405;28;20398;-67
2023/05/03 05:24:37;;;;;;;5.20;1.80;;;8.80;99.90;;;;;;5088748;28;20434;-69
2023/05/03 05:27:03;;;;;;;3.60;1.13;;;8.80;99.90;;;;;;5087579;28;20915;-70
2023/05/03 05:29:28;;;;;;;4.13;1.20;;;8.80;99.90;;;;;;5088511;28;20446;-71
2023/05/03 05:31:55;;;;;;;3.33;1.20;;;8.80;99.90;;;;;;5089662;28;20658;-73
2023/05/03 05:34:20;;;;;;;2.45;1.10;;;8.80;99.90;;;;;;5094622;28;20408;-73
2023/05/03 05:36:46;;;;;;;4.93;1.20;;;8.80;99.90;;;;;;5088688;28;20925;-73
2023/05/03 05:39:11;;;;;;;3.20;0.80;;;8.80;99.90;;;;;;5093325;28;20400;-72
2023/05/03 05:41:37;;;;;;;3.60;1.00;;;8.90;99.90;;;;;;5088196;28;20410;-73
2023/05/03 05:44:03;;;;;;;3.65;0.90;;;8.90;99.90;;;;;;5089305;28;20943;-73
2023/05/03 05:46:29;;;;;;;3.72;0.75;;;8.90;99.90;;;;;;5090469;28;20450;-72
2023/05/03 05:48:55;;;;;;;3.60;1.07;;;8.90;99.90;;;;;;5095475;28;20404;-73
2023/05/03 05:51:20;;;;;;;5.40;0.70;;;9.00;99.90;;;;;;5091596;28;20903;-73
2023/05/03 05:53:46;;;;;;;2.80;0.70;;;9.00;99.90;;;;;;5095041;28;20479;-72
2023/05/03 05:56:12;;;;;;;1.98;0.60;;;9.00;99.90;;;;;;5090545;28;21173;-72
2023/05/03 05:58:37;;;;;;;4.93;0.77;;;9.00;99.90;;;;;;5095268;28;20396;-73
2023/05/03 06:01:03;;;;;;;4.27;0.80;;;9.00;99.90;;;;;;5088685;28;20428;-73
2023/05/03 06:03:30;;;;;;;3.30;0.60;;;9.10;99.90;;;;;;5093003;28;20798;-73
2023/05/03 06:05:56;;;;;;;2.95;0.70;;;9.20;99.90;;;;;;5090252;28;20427;-72
2023/05/03 06:08:22;;;;;;;2.90;0.70;;;9.20;99.90;;;;;;5093281;28;20789;-73
2023/05/03 06:10:48;;;;;;;2.20;0.57;;;9.20;99.90;;;;;;5088237;28;20402;-73
2023/05/03 06:13:13;;;;;;;3.40;0.60;;;9.30;99.90;;;;;;5086129;28;20460;-72
2023/05/03 06:15:40;;;;;;;3.03;0.55;;;9.30;99.90;;;;;;5091058;28;20402;-73
2023/05/03 06:18:06;;;;;;;4.13;0.68;;;9.30;99.90;;;;;;5089765;28;20492;-73
2023/05/03 06:20:31;;;;;;;2.28;0.60;;;9.40;99.90;;;;;;5091243;28;20481;-73
2023/05/03 06:22:57;;;;;;;3.03;0.60;;;9.40;99.90;;;;;;5088369;28;20960;-73
2023/05/03 06:25:22;;;;;;;2.78;0.60;;;9.40;99.90;;;;;;5089978;28;20831;-73
2023/05/03 06:27:48;;;;;;;2.97;0.70;;;9.40;99.90;;;;;;5089560;28;20410;-73
2023/05/03 06:30:14;;;;;;;6.10;0.82;;;9.50;99.90;;;;;;5088854;28;20493;-73
2023/05/03 06:32:41;;;;;;;3.65;0.50;;;9.50;99.90;;;;;;5093928;28;20397;-73
2023/05/03 06:35:08;;;;;;;4.72;1.00;;;9.50;99.90;;;;;;5086239;28;20764;-73
2023/05/03 06:37:34;;;;;;;3.88;1.00;;;9.60;99.90;;;;;;5091163;28;20581;-73
2023/05/03 06:40:00;;;;;;;5.75;0.70;;;9.60;99.90;;;;;;5087137;28;20452;-73
2023/05/03 06:42:26;;;;;;;4.23;0.70;;;9.60;99.90;;;;;;5091696;28;20400;-73
2023/05/03 06:44:52;;;;;;;4.30;1.00;;;9.60;99.90;;;;;;5088798;28;20429;-73
2023/05/03 06:47:19;;;;;;;2.75;0.60;;;9.70;99.90;;;;;;5090590;28;20400;-73
2023/05/03 06:49:45;;;;;;;3.78;0.90;;;9.60;99.90;;;;;;5088958;28;20900;-71
2023/05/03 06:52:11;;;;;;;2.90;0.70;;;9.70;99.90;;;;;;5090754;28;20396;-71
2023/05/03 06:54:36;;;;;;;4.57;0.80;;;9.70;99.90;;;;;;5089666;28;20397;-71
2023/05/03 06:57:03;;;;;;;3.13;0.70;;;9.70;99.90;;;;;;5095475;28;20388;-71
2023/05/03 06:59:29;;;;;;;3.60;0.73;;;9.60;99.90;;;;;;5090312;28;20398;-71
2023/05/03 07:01:55;;;;;;;5.25;1.02;;;9.60;99.90;;;;;;5090950;28;20467;-71
2023/05/03 07:04:20;;;;;;;7.30;0.80;;;9.60;99.90;;;;;;5091202;28;20432;-71
2023/05/03 07:06:46;;;;;;;2.83;0.75;;;9.60;99.90;;;;;;5091205;28;20398;-71
2023/05/03 07:09:12;;;;;;;3.80;0.50;;;9.70;99.90;;;;;;5089464;28;20402;-71
2023/05/03 07:11:43;;;;;;;3.10;0.70;;;9.70;99.90;;;;;;5091571;28;20439;-71
2023/05/03 07:14:09;;;;;;;3.85;0.70;;;9.80;99.90;;;;;;5090050;28;20474;-71
2023/05/03 07:16:34;;;;;;;2.58;0.40;;;9.80;99.90;;;;;;5090736;28;20401;-71
2023/05/03 07:19:00;;;;;;;2.70;0.43;;;9.80;99.90;;;;;;5072533;28;20930;-71
2023/05/03 07:21:26;;;;;;;3.95;0.45;;;9.90;99.90;;;;;;5089893;28;20402;-71
2023/05/03 07:23:51;;;;;;;2.70;0.40;;;10.00;99.90;;;;;;5089447;28;20494;-71
2023/05/03 07:26:17;;;;;;;2.65;0.43;;;10.00;99.90;;;;;;5091351;28;20484;-71
2023/05/03 07:28:42;;;;;;;2.07;0.50;;;10.00;99.90;;;;;;5090558;28;20398;-71
2023/05/03 07:31:08;;;;;;;4.90;0.70;;;10.10;99.90;;;;;;5090400;28;20813;-72
2023/05/03 07:33:36;;;;;;;2.57;0.33;;;10.10;99.90;;;;;;5090246;28;20402;-71
2023/05/03 07:36:02;;;;;;;4.22;0.77;;;10.10;99.90;;;;;;5090433;28;20484;-72
2023/05/03 07:38:28;;;;;;;3.13;0.40;;;10.20;99.90;;;;;;5088551;28;20402;-72
2023/05/03 07:40:54;;;;;;;2.30;0.30;;;10.20;99.90;;;;;;5088705;28;20451;-72
2023/05/03 07:43:22;;;;;;;4.13;0.50;;;10.30;99.90;;;;;;5093438;28;20434;-72
2023/05/03 07:45:48;;;;;;;1.98;0.30;;;10.30;99.90;;;;;;5096267;28;20407;-72
2023/05/03 07:48:14;;;;;;;4.33;0.40;;;10.30;99.90;;;;;;5093066;28;20402;-72
2023/05/03 07:50:43;;;;;;;3.40;0.67;;;10.40;99.90;;;;;;5096671;28;20392;-72
2023/05/03 07:53:08;;;;;;;1.83;0.30;;;10.40;99.90;;;;;;5090088;28;20402;-72
2023/05/03 07:55:35;;;;;;;3.50;0.40;;;10.40;99.90;;;;;;5093213;28;20399;-71
2023/05/03 07:58:02;;;;;;;2.38;0.35;;;10.40;99.90;;;;;;5090040;28;20402;-72
2023/05/03 08:00:28;;;;;;;2.90;0.45;;;10.40;99.90;;;;;;5088677;28;20405;-71
2023/05/03 08:02:53;;;;;;;3.13;0.60;;;10.40;99.90;;;;;;5088915;28;20414;-72
2023/05/03 08:05:19;;;;;;;2.17;0.50;;;10.40;99.90;;;;;;5096404;28;20453;-72
2023/05/03 08:07:45;;;;;;;2.97;0.45;;;10.40;99.90;;;;;;5089112;28;20442;-72
2023/05/03 08:10:11;;;;;;;2.83;0.60;;;10.40;99.90;;;;;;5096038;28;20404;-71
2023/05/03 08:12:36;;;;;;;2.00;0.47;;;10.50;99.90;;;;;;5092950;28;20505;-72
2023/05/03 08:15:05;;;;;;;2.97;0.35;;;10.40;99.90;;;;;;5092909;28;20389;-72
2023/05/03 08:17:31;;;;;;;4.20;0.55;;;10.50;99.90;;;;;;5089151;28;20903;-72
2023/05/03 08:19:57;;;;;;;2.50;0.50;;;10.60;99.90;;;;;;5091093;28;20425;-72
2023/05/03 08:22:25;;;;;;;4.77;0.80;;;10.60;99.90;;;;;;5088464;28;20903;-71
2023/05/03 08:24:52;;;;;;;2.42;0.50;;;10.60;99.90;;;;;;5090928;28;20566;-71
2023/05/03 08:27:18;;;;;;;3.40;0.50;;;10.70;99.90;;;;;;5090681;28;20401;-72
2023/05/03 08:29:43;;;;;;;2.33;0.47;;;10.70;99.90;;;;;;5093815;28;20405;-71
2023/05/03 08:32:09;;;;;;;3.87;0.57;;;10.80;99.90;;;;;;5091764;28;20413;-72
2023/05/03 08:34:35;;;;;;;4.93;0.70;;;10.90;99.90;;;;;;5094464;28;20435;-72
2023/05/03 08:37:01;;;;;;;3.72;0.65;;;10.90;99.90;;;;;;5092913;28;20502;-71
2023/05/03 08:39:30;;;;;;;3.22;0.50;;;10.90;99.90;;;;;;5095260;28;20399;-72
2023/05/03 08:41:55;;;;;;;4.18;0.47;;;10.90;99.90;;;;;;5083389;28;20399;-71
2023/05/03 08:44:22;;;;;;;3.80;0.52;;;11.00;99.90;;;;;;5094032;28;20438;-72
2023/05/03 08:46:51;;;;;;;2.78;0.50;;;11.00;99.90;;;;;;5087208;28;20433;-72
2023/05/03 08:49:17;;;;;;;2.88;0.50;;;11.00;99.90;;;;;;5094956;28;20402;-72
2023/05/03 08:51:48;;;;;;;2.50;0.40;;;11.10;99.90;;;;;;5089055;28;20402;-72
2023/05/03 08:54:15;;;;;;;2.63;0.57;;;11.10;99.90;;;;;;5085102;28;20439;-72
2023/05/03 08:56:42;;;;;;;2.83;0.60;;;11.10;99.90;;;;;;5085349;28;20471;-72
2023/05/03 08:59:10;;;;;;;3.60;0.63;;;11.20;99.90;;;;;;5088466;28;20406;-72
2023/05/03 09:01:37;;;;;;;1.52;0.40;;;11.30;99.90;;;;;;5088643;28;20394;-71
2023/05/03 09:04:04;;;;;;;3.50;0.63;;;11.30;99.90;;;;;;5087315;28;21099;-72
2023/05/03 09:06:31;;;;;;;3.90;0.75;;;11.40;99.90;;;;;;5069873;28;20417;-72
2023/05/03 09:08:58;;;;;;;2.95;0.73;;;11.40;99.90;;;;;;5088704;28;20768;-72
2023/05/03 09:11:33;;;;;;;4.10;0.70;;;11.40;99.90;;;;;;5088439;28;20406;-71
2023/05/03 09:14:17;;;;;;;1.90;0.73;;;11.40;99.90;;;;;;5088866;28;20402;-71
2023/05/03 09:16:44;;;;;;;1.50;0.67;;;11.50;99.90;;;;;;5090746;28;20423;-72
2023/05/03 09:19:11;;;;;;;2.40;0.70;;;11.50;99.90;;;;;;5091374;28;20451;-72
2023/05/03 09:21:46;;;;;;;2.80;0.93;;;11.60;99.90;;;;;;5095058;28;20409;-72
2023/05/03 09:24:17;;;;;;;5.30;0.80;;;11.70;99.90;;;;;;5087891;28;20433;-72
2023/05/03 09:26:45;;;;;;;3.55;0.50;;;11.80;99.90;;;;;;5091002;28;20982;-71
2023/05/03 09:29:29;;;;;;;2.47;0.52;;;11.90;99.90;;;;;;5091761;28;20406;-71
2023/05/03 09:32:00;;;;;;;2.93;0.70;;;12.00;99.90;;;;;;5090906;28;20919;-72
2023/05/03 09:34:26;;;;;;;4.25;0.52;;;12.00;99.90;;;;;;5095690;28;20398;-72
2023/05/03 09:36:51;;;;;;;2.17;0.57;;;12.00;99.90;;;;;;5074154;28;20409;-72
2023/05/03 09:39:18;;;;;;;2.50;0.30;;;12.00;99.90;;;;;;5094218;28;20400;-72
2023/05/03 09:41:44;;;;;;;3.20;0.60;;;12.10;99.90;;;;;;5088289;28;20504;-72
2023/05/03 09:44:11;;;;;;;4.35;0.60;;;12.10;99.90;;;;;;5094390;28;20515;-72
2023/05/03 09:46:37;;;;;;;3.08;0.45;;;12.10;99.60;;;;;;5073510;28;20915;-72
2023/05/03 09:49:03;;;;;;;3.60;0.47;;;12.10;99.40;;;;;;5094685;28;20404;-72
2023/05/03 09:51:31;;;;;;;2.40;0.47;;;12.20;99.90;;;;;;5090024;28;20410;-72
2023/05/03 09:53:58;;;;;;;1.95;0.50;;;12.30;99.60;;;;;;5100291;28;20406;-72
2023/05/03 09:56:25;;;;;;;3.92;0.50;;;12.30;99.70;;;;;;5088481;28;20432;-72
2023/05/03 09:58:55;;;;;;;3.90;0.90;;;12.40;99.60;;;;;;5087147;28;20414;-72
2023/05/03 10:01:23;;;;;;;2.65;0.40;;;12.40;99.00;;;;;;5070221;28;20492;-72
2023/05/03 10:03:50;;;;;;;3.28;0.50;;;12.40;99.00;;;;;;5086657;28;20499;-72
2023/05/03 10:06:34;;;;;;;5.68;0.52;;;12.40;99.30;;;;;;5087157;28;20432;-72
2023/05/03 10:09:07;;;;;;;2.80;0.40;;;12.40;99.30;;;;;;5086823;28;20402;-72
2023/05/03 10:11:35;;;;;;;3.88;0.50;;;12.40;98.90;;;;;;5070649;28;20417;-72
2023/05/03 10:14:01;;;;;;;4.88;0.50;;;12.40;99.20;;;;;;5087261;28;20406;-72
2023/05/03 10:16:35;;;;;;;2.23;0.40;;;12.40;98.80;;;;;;5088341;28;20405;-72
2023/05/03 10:19:10;;;;;;;3.10;0.50;;;12.40;98.90;;;;;;5087210;28;20402;-72
2023/05/03 10:22:05;;;;;;;4.50;0.77;;;12.40;99.20;;;;;;5088482;28;20410;-71
2023/05/03 10:24:31;;;;;;;2.70;0.30;;;12.50;98.80;;;;;;5087019;28;20441;-72
2023/05/03 10:26:58;;;;;;;3.40;0.40;;;12.50;98.80;;;;;;5088567;28;20402;-72
2023/05/03 10:29:54;;;;;;;1.98;0.40;;;12.50;99.20;;;;;;5091634;28;20404;-72
2023/05/03 10:32:33;;;;;;;2.75;0.60;;;12.50;99.10;;;;;;5086745;28;20946;-72
2023/05/03 10:35:02;;;;;;;4.45;0.50;;;12.40;99.10;;;;;;5075622;28;20414;-72
2023/05/03 10:37:28;;;;;;;3.80;0.60;;;12.40;99.10;;;;;;5095690;28;20932;-72
2023/05/03 10:39:55;;;;;;;4.57;0.50;;;12.30;99.10;;;;;;5093663;28;20421;-72
2023/05/03 10:42:24;;;;;;;4.88;0.60;;;12.20;99.40;;;;;;5096260;28;20410;-72
2023/05/03 10:44:53;;;;;;;3.92;0.68;;;12.20;99.70;;;;;;5091991;28;21314;-72
2023/05/03 10:47:22;;;;;;;3.67;0.70;;;12.10;99.20;;;;;;5078210;28;20412;-72
2023/05/03 10:50:10;;;;;;;3.20;0.60;;;12.00;99.90;;;;;;5091262;28;20406;-72
2023/05/03 10:52:39;;;;;;;3.67;0.47;;;11.90;99.90;;;;;;5087561;28;20417;-72
2023/05/03 10:55:09;;;;;;;2.83;0.50;;;11.90;99.90;;;;;;5093344;28;20923;-72
2023/05/03 10:57:37;;;;;;;3.63;0.50;;;11.90;99.90;;;;;;5094369;28;20543;-72
2023/05/03 11:00:11;;;;;;;4.78;0.77;;;11.90;99.90;;;;;;5091484;28;20422;-72
2023/05/03 11:02:47;;;;;;;4.15;0.68;;;11.80;99.90;;;;;;5083804;28;20425;-72
2023/05/03 11:05:17;;;;;;;3.50;0.63;;;11.70;99.90;;;;;;5089652;28;20420;-72
2023/05/03 11:07:43;;;;;;;3.47;0.60;;;11.70;99.90;;;;;;5090894;28;20406;-72
2023/05/03 11:10:16;;;;;;;4.13;0.70;;;11.80;99.90;;;;;;5095373;28;20798;-73
2023/05/03 11:12:42;;;;;;;3.15;0.60;;;11.80;99.90;;;;;;5086614;28;20397;-72
2023/05/03 11:15:10;;;;;;;3.63;0.70;;;11.90;99.90;;;;;;5090396;28;20487;-72
2023/05/03 11:17:37;;;;;;;2.60;0.60;;;11.90;99.90;;;;;;5086205;28;20418;-72
2023/05/03 11:20:07;;;;;;;3.28;0.60;;;11.90;99.90;;;;;;5087799;28;20466;-72
2023/05/03 11:22:34;;;;;;;3.85;0.90;;;11.80;99.90;;;;;;5087472;28;20495;-72
2023/05/03 11:24:59;;;;;;;3.05;0.60;;;11.80;99.90;;;;;;5087753;28;20932;-72
2023/05/03 11:27:25;;;;;;;4.00;1.03;;;11.80;99.90;;;;;;5087391;28;20506;-72
2023/05/03 11:29:52;;;;;;;6.47;1.13;;;11.80;99.90;;;;;;5086189;28;20437;-72
2023/05/03 11:32:18;;;;;;;3.75;0.80;;;11.90;99.90;;;;;;5087563;28;20402;-72
2023/05/03 11:34:45;;;;;;;3.10;0.90;;;12.00;99.90;;;;;;5087715;28;20966;-72
2023/05/03 11:37:10;;;;;;;3.83;0.70;;;12.10;99.90;;;;;;5087850;28;20394;-72
2023/05/03 11:39:36;;;;;;;3.97;0.70;;;12.20;99.90;;;;;;5087740;28;20788;-73
2023/05/03 11:42:03;;;;;;;3.53;0.60;;;12.30;99.90;;;;;;5086608;28;20409;-72
2023/05/03 11:44:29;;;;;;;3.70;0.60;;;12.40;99.90;;;;;;5090157;28;20429;-73
2023/05/03 11:46:55;;;;;;;5.25;0.80;;;12.40;99.90;;;;;;5092324;28;20472;-72
2023/05/03 11:49:23;;;;;;;3.10;0.68;;;12.50;99.90;;;;;;5089936;28;20410;-72
2023/05/03 11:51:51;;;;;;;4.00;0.60;;;12.70;99.90;;;;;;5091743;28;20401;-72
2023/05/03 11:54:17;;;;;;;3.97;0.80;;;12.90;99.90;;;;;;5089467;28;20903;-72
2023/05/03 11:56:42;;;;;;;3.97;0.75;;;13.10;99.90;;;;;;5090357;28;20409;-72
2023/05/03 11:59:08;;;;;;;2.50;0.40;;;13.20;99.90;;;;;;5090171;28;20398;-72
2023/05/03 12:01:33;;;;;;;4.18;0.70;;;13.20;99.10;;;;;;5090051;28;21247;-73
2023/05/03 12:04:01;;;;;;;3.10;0.67;;;13.20;99.00;;;;;;5093720;28;20826;-72
2023/05/03 12:06:32;;;;;;;2.50;0.70;;;13.20;99.40;;;;;;5087843;28;20406;-73
2023/05/03 12:08:57;;;;;;;3.75;0.75;;;13.30;99.30;;;;;;5088797;28;20402;-72
2023/05/03 12:11:24;;;;;;;3.30;0.80;;;13.40;99.10;;;;;;5089657;28;20815;-72
2023/05/03 12:13:58;;;;;;;3.88;0.60;;;13.40;98.90;;;;;;5091827;28;20741;-72
2023/05/03 12:16:24;;;;;;;3.72;0.60;;;13.60;98.90;;;;;;5092158;28;20412;-72
2023/05/03 12:18:52;;;;;;;3.03;0.98;;;13.70;98.50;;;;;;5093411;28;21183;-72
2023/05/03 12:21:19;;;;;;;3.70;0.70;;;13.80;98.60;;;;;;5092744;28;20406;-73
2023/05/03 12:23:45;;;;;;;2.88;0.65;;;13.90;98.30;;;;;;5088852;28;21342;-72
2023/05/03 12:26:11;;;;;;;2.95;0.57;;;13.90;97.90;;;;;;5071016;28;20402;-73
2023/05/03 12:28:37;;;;;;;2.10;0.47;;;13.90;98.00;;;;;;5093756;28;20402;-72
2023/05/03 12:31:03;;;;;;;3.10;0.50;;;13.80;97.30;;;;;;5097793;28;20453;-72
2023/05/03 12:33:29;;;;;;;3.13;0.50;;;13.80;98.00;;;;;;5092787;28;20402;-73
2023/05/03 12:35:55;;;;;;;3.72;0.50;;;13.90;97.90;;;;;;5097982;28;20404;-72
2023/05/03 12:38:22;;;;;;;3.28;0.57;;;13.90;97.40;;;;;;5094144;28;20402;-72
2023/05/03 12:40:47;;;;;;;3.90;0.70;;;14.00;97.30;;;;;;5097324;28;20392;-72
2023/05/03 12:43:13;;;;;;;3.53;0.77;;;14.10;96.80;;;;;;5093859;28;20792;-72
2023/05/03 12:45:39;;;;;;;3.53;0.70;;;14.10;96.90;;;;;;5097116;28;20416;-73
2023/05/03 12:48:05;;;;;;;2.38;0.60;;;14.20;96.40;;;;;;5096011;28;20398;-72
2023/05/03 12:50:31;;;;;;;3.63;0.90;;;14.20;96.40;;;;;;5098629;28;20396;-72
2023/05/03 12:52:57;;;;;;;3.20;0.80;;;14.20;96.30;;;;;;5095939;28;20764;-73